sensor_id;sensor_type;location;lat;lon;timestamp;P1;durP1;ratioP1;P2;durP2;ratioP2
23187;SDS011;11762;59.878;17.686;2022-11-20T00:01:06;4.37;;;1.70;;
23187;SDS011;11762;59.878;17.686;2022-11-20T00:03:33;2.70;;;1.53;;
23187;SDS011;11762;59.878;17.686;2022-11-20T00:06:03;2.40;;;1.30;;
23187;SDS011;11762;59.878;17.686;2022-11-20T00:08:31;3.80;;;1.83;;
23187;SDS011;11762;59.878;17.686;2022-11-20T00:11:01;4.10;;;2.00;;
23187;SDS011;11762;59.878;17.686;2022-11-20T00:13:29;2.83;;;1.53;;
23187;SDS011;11762;59.878;17.686;2022-11-20T00:15:59;3.60;;;1.60;;
23187;SDS011;11762;59.878;17.686;2022-11-20T00:18:27;5.63;;;2.03;;
23187;SDS011;11762;59.878;17.686;2022-11-20T00:21:00;3.07;;;1.40;;
23187;SDS011;11762;59.878;17.686;2022-11-20T00:23:29;4.10;;;1.37;;
23187;SDS011;11762;59.878;17.686;2022-11-20T00:25:56;3.43;;;1.63;;
23187;SDS011;11762;59.878;17.686;2022-11-20T00:28:23;3.50;;;1.53;;
23187;SDS011;11762;59.878;17.686;2022-11-20T00:30:50;2.83;;;1.70;;
23187;SDS011;11762;59.878;17.686;2022-11-20T00:33:17;3.80;;;1.70;;
23187;SDS011;11762;59.878;17.686;2022-11-20T00:35:44;3.43;;;2.00;;
23187;SDS011;11762;59.878;17.686;2022-11-20T00:38:11;3.77;;;1.90;;
23187;SDS011;11762;59.878;17.686;2022-11-20T00:40:39;2.90;;;1.63;;
23187;SDS011;11762;59.878;17.686;2022-11-20T00:43:06;4.00;;;2.00;;
23187;SDS011;11762;59.878;17.686;2022-11-20T00:45:33;5.50;;;1.80;;
23187;SDS011;11762;59.878;17.686;2022-11-20T00:48:00;2.50;;;1.60;;
23187;SDS011;11762;59.878;17.686;2022-11-20T00:50:27;3.20;;;1.30;;
23187;SDS011;11762;59.878;17.686;2022-11-20T00:52:54;3.10;;;1.60;;
23187;SDS011;11762;59.878;17.686;2022-11-20T00:55:21;4.17;;;1.70;;
23187;SDS011;11762;59.878;17.686;2022-11-20T00:57:49;3.37;;;1.60;;
23187;SDS011;11762;59.878;17.686;2022-11-20T01:00:16;3.83;;;1.53;;
23187;SDS011;11762;59.878;17.686;2022-11-20T01:02:43;3.00;;;1.77;;
23187;SDS011;11762;59.878;17.686;2022-11-20T01:05:10;3.03;;;1.60;;
23187;SDS011;11762;59.878;17.686;2022-11-20T01:07:37;3.07;;;1.70;;
23187;SDS011;11762;59.878;17.686;2022-11-20T01:10:04;3.07;;;1.80;;
23187;SDS011;11762;59.878;17.686;2022-11-20T01:12:32;4.33;;;1.50;;
23187;SDS011;11762;59.878;17.686;2022-11-20T01:15:00;3.03;;;1.60;;
23187;SDS011;11762;59.878;17.686;2022-11-20T01:17:27;5.07;;;1.47;;
23187;SDS011;11762;59.878;17.686;2022-11-20T01:19:54;3.43;;;1.70;;
23187;SDS011;11762;59.878;17.686;2022-11-20T01:22:21;3.30;;;1.77;;
23187;SDS011;11762;59.878;17.686;2022-11-20T01:24:48;3.03;;;1.70;;
23187;SDS011;11762;59.878;17.686;2022-11-20T01:27:15;3.47;;;1.97;;
23187;SDS011;11762;59.878;17.686;2022-11-20T01:29:42;4.20;;;2.17;;
23187;SDS011;11762;59.878;17.686;2022-11-20T01:32:11;4.73;;;1.60;;
23187;SDS011;11762;59.878;17.686;2022-11-20T01:34:37;2.90;;;1.47;;
23187;SDS011;11762;59.878;17.686;2022-11-20T01:37:04;3.83;;;1.70;;
23187;SDS011;11762;59.878;17.686;2022-11-20T01:39:31;2.60;;;1.67;;
23187;SDS011;11762;59.878;17.686;2022-11-20T01:41:58;2.70;;;1.50;;
23187;SDS011;11762;59.878;17.686;2022-11-20T01:44:53;3.73;;;1.90;;
23187;SDS011;11762;59.878;17.686;2022-11-20T01:47:23;3.80;;;1.80;;
23187;SDS011;11762;59.878;17.686;2022-11-20T01:49:56;6.37;;;1.90;;
23187;SDS011;11762;59.878;17.686;2022-11-20T01:52:28;4.03;;;1.73;;
23187;SDS011;11762;59.878;17.686;2022-11-20T01:54:59;2.67;;;1.40;;
23187;SDS011;11762;59.878;17.686;2022-11-20T01:57:29;3.37;;;1.97;;
23187;SDS011;11762;59.878;17.686;2022-11-20T02:00:00;2.73;;;1.63;;
23187;SDS011;11762;59.878;17.686;2022-11-20T02:02:31;3.83;;;1.43;;
23187;SDS011;11762;59.878;17.686;2022-11-20T02:05:00;6.40;;;2.30;;
23187;SDS011;11762;59.878;17.686;2022-11-20T02:07:35;2.90;;;1.63;;
23187;SDS011;11762;59.878;17.686;2022-11-20T02:10:03;4.27;;;2.30;;
23187;SDS011;11762;59.878;17.686;2022-11-20T02:12:30;3.17;;;1.70;;
23187;SDS011;11762;59.878;17.686;2022-11-20T02:15:15;4.87;;;2.60;;
23187;SDS011;11762;59.878;17.686;2022-11-20T02:17:43;3.43;;;2.00;;
23187;SDS011;11762;59.878;17.686;2022-11-20T02:20:10;6.20;;;2.13;;
23187;SDS011;11762;59.878;17.686;2022-11-20T02:22:40;3.40;;;2.07;;
23187;SDS011;11762;59.878;17.686;2022-11-20T02:25:14;3.70;;;2.30;;
23187;SDS011;11762;59.878;17.686;2022-11-20T02:27:42;4.37;;;2.40;;
23187;SDS011;11762;59.878;17.686;2022-11-20T02:30:09;3.33;;;1.83;;
23187;SDS011;11762;59.878;17.686;2022-11-20T02:32:37;3.23;;;1.83;;
23187;SDS011;11762;59.878;17.686;2022-11-20T02:35:06;3.37;;;2.07;;
23187;SDS011;11762;59.878;17.686;2022-11-20T02:37:36;3.63;;;1.73;;
23187;SDS011;11762;59.878;17.686;2022-11-20T02:40:05;3.13;;;1.83;;
23187;SDS011;11762;59.878;17.686;2022-11-20T02:42:35;3.50;;;2.10;;
23187;SDS011;11762;59.878;17.686;2022-11-20T02:45:02;5.47;;;2.03;;
23187;SDS011;11762;59.878;17.686;2022-11-20T02:47:29;7.50;;;1.80;;
23187;SDS011;11762;59.878;17.686;2022-11-20T02:49:56;3.30;;;1.90;;
23187;SDS011;11762;59.878;17.686;2022-11-20T02:52:23;4.17;;;2.13;;
23187;SDS011;11762;59.878;17.686;2022-11-20T02:54:51;4.03;;;1.80;;
23187;SDS011;11762;59.878;17.686;2022-11-20T02:57:18;2.67;;;1.73;;
23187;SDS011;11762;59.878;17.686;2022-11-20T02:59:47;4.97;;;1.70;;
23187;SDS011;11762;59.878;17.686;2022-11-20T03:02:14;2.60;;;1.40;;
23187;SDS011;11762;59.878;17.686;2022-11-20T03:04:41;4.93;;;1.80;;
23187;SDS011;11762;59.878;17.686;2022-11-20T03:07:08;7.10;;;2.47;;
23187;SDS011;11762;59.878;17.686;2022-11-20T03:09:35;2.57;;;1.47;;
23187;SDS011;11762;59.878;17.686;2022-11-20T03:12:02;3.20;;;1.80;;
23187;SDS011;11762;59.878;17.686;2022-11-20T03:14:29;3.43;;;1.70;;
23187;SDS011;11762;59.878;17.686;2022-11-20T03:16:58;5.20;;;1.33;;
23187;SDS011;11762;59.878;17.686;2022-11-20T03:19:24;3.53;;;1.50;;
23187;SDS011;11762;59.878;17.686;2022-11-20T03:21:51;5.50;;;1.10;;
23187;SDS011;11762;59.878;17.686;2022-11-20T03:24:18;2.97;;;1.10;;
23187;SDS011;11762;59.878;17.686;2022-11-20T03:26:45;2.70;;;1.33;;
23187;SDS011;11762;59.878;17.686;2022-11-20T03:29:12;2.40;;;1.40;;
23187;SDS011;11762;59.878;17.686;2022-11-20T03:31:40;2.70;;;1.30;;
23187;SDS011;11762;59.878;17.686;2022-11-20T03:34:08;1.80;;;1.10;;
23187;SDS011;11762;59.878;17.686;2022-11-20T03:36:37;3.97;;;1.50;;
23187;SDS011;11762;59.878;17.686;2022-11-20T03:39:04;2.27;;;0.90;;
23187;SDS011;11762;59.878;17.686;2022-11-20T03:41:35;3.37;;;1.43;;
23187;SDS011;11762;59.878;17.686;2022-11-20T03:44:04;2.50;;;1.03;;
23187;SDS011;11762;59.878;17.686;2022-11-20T03:46:33;3.47;;;1.03;;
23187;SDS011;11762;59.878;17.686;2022-11-20T03:49:00;2.67;;;1.20;;
23187;SDS011;11762;59.878;17.686;2022-11-20T03:51:29;2.10;;;1.00;;
23187;SDS011;11762;59.878;17.686;2022-11-20T03:53:57;2.47;;;1.20;;
23187;SDS011;11762;59.878;17.686;2022-11-20T03:56:26;4.27;;;1.50;;
23187;SDS011;11762;59.878;17.686;2022-11-20T03:58:54;2.03;;;1.00;;
23187;SDS011;11762;59.878;17.686;2022-11-20T04:01:22;2.63;;;1.30;;
23187;SDS011;11762;59.878;17.686;2022-11-20T04:03:51;3.03;;;1.00;;
23187;SDS011;11762;59.878;17.686;2022-11-20T04:06:20;2.77;;;1.20;;
23187;SDS011;11762;59.878;17.686;2022-11-20T04:08:49;1.80;;;0.90;;
23187;SDS011;11762;59.878;17.686;2022-11-20T04:11:17;2.80;;;1.10;;
23187;SDS011;11762;59.878;17.686;2022-11-20T04:13:46;1.43;;;0.60;;
23187;SDS011;11762;59.878;17.686;2022-11-20T04:16:14;2.37;;;1.10;;
23187;SDS011;11762;59.878;17.686;2022-11-20T04:18:41;2.70;;;1.10;;
23187;SDS011;11762;59.878;17.686;2022-11-20T04:21:09;1.93;;;1.00;;
23187;SDS011;11762;59.878;17.686;2022-11-20T04:23:36;2.53;;;1.20;;
23187;SDS011;11762;59.878;17.686;2022-11-20T04:26:06;1.70;;;0.90;;
23187;SDS011;11762;59.878;17.686;2022-11-20T04:28:34;2.57;;;1.10;;
23187;SDS011;11762;59.878;17.686;2022-11-20T04:31:05;2.50;;;1.20;;
23187;SDS011;11762;59.878;17.686;2022-11-20T04:33:33;3.20;;;1.03;;
23187;SDS011;11762;59.878;17.686;2022-11-20T04:36:02;1.70;;;0.90;;
23187;SDS011;11762;59.878;17.686;2022-11-20T04:38:30;1.70;;;0.90;;
23187;SDS011;11762;59.878;17.686;2022-11-20T04:40:58;3.13;;;1.37;;
23187;SDS011;11762;59.878;17.686;2022-11-20T04:43:27;4.07;;;1.40;;
23187;SDS011;11762;59.878;17.686;2022-11-20T04:45:54;3.20;;;1.23;;
23187;SDS011;11762;59.878;17.686;2022-11-20T04:48:23;3.33;;;1.00;;
23187;SDS011;11762;59.878;17.686;2022-11-20T04:50:51;1.80;;;1.00;;
23187;SDS011;11762;59.878;17.686;2022-11-20T04:53:18;1.87;;;1.07;;
23187;SDS011;11762;59.878;17.686;2022-11-20T04:55:46;3.40;;;1.00;;
23187;SDS011;11762;59.878;17.686;2022-11-20T04:58:13;2.23;;;1.00;;
23187;SDS011;11762;59.878;17.686;2022-11-20T05:00:41;1.47;;;0.80;;
23187;SDS011;11762;59.878;17.686;2022-11-20T05:03:08;1.83;;;0.97;;
23187;SDS011;11762;59.878;17.686;2022-11-20T05:05:35;4.60;;;1.00;;
23187;SDS011;11762;59.878;17.686;2022-11-20T05:08:02;5.50;;;1.40;;
23187;SDS011;11762;59.878;17.686;2022-11-20T05:10:30;3.20;;;1.03;;
23187;SDS011;11762;59.878;17.686;2022-11-20T05:12:57;2.87;;;1.00;;
23187;SDS011;11762;59.878;17.686;2022-11-20T05:15:23;2.30;;;1.30;;
23187;SDS011;11762;59.878;17.686;2022-11-20T05:17:52;2.27;;;1.30;;
23187;SDS011;11762;59.878;17.686;2022-11-20T05:20:19;2.33;;;1.20;;
23187;SDS011;11762;59.878;17.686;2022-11-20T05:22:46;2.63;;;1.30;;
23187;SDS011;11762;59.878;17.686;2022-11-20T05:25:13;2.57;;;1.23;;
23187;SDS011;11762;59.878;17.686;2022-11-20T05:27:40;1.57;;;0.97;;
23187;SDS011;11762;59.878;17.686;2022-11-20T05:30:08;2.17;;;1.03;;
23187;SDS011;11762;59.878;17.686;2022-11-20T05:32:36;5.53;;;1.00;;
23187;SDS011;11762;59.878;17.686;2022-11-20T05:35:04;2.23;;;0.90;;
23187;SDS011;11762;59.878;17.686;2022-11-20T05:37:32;2.60;;;0.90;;
23187;SDS011;11762;59.878;17.686;2022-11-20T05:39:59;2.07;;;0.90;;
23187;SDS011;11762;59.878;17.686;2022-11-20T05:42:26;2.83;;;1.00;;
23187;SDS011;11762;59.878;17.686;2022-11-20T05:44:59;2.33;;;0.83;;
23187;SDS011;11762;59.878;17.686;2022-11-20T05:47:27;2.10;;;1.00;;
23187;SDS011;11762;59.878;17.686;2022-11-20T05:49:59;2.00;;;1.00;;
23187;SDS011;11762;59.878;17.686;2022-11-20T05:52:29;1.23;;;0.67;;
23187;SDS011;11762;59.878;17.686;2022-11-20T05:54:56;2.03;;;0.80;;
23187;SDS011;11762;59.878;17.686;2022-11-20T05:57:23;1.70;;;0.90;;
23187;SDS011;11762;59.878;17.686;2022-11-20T05:59:50;1.83;;;0.90;;
23187;SDS011;11762;59.878;17.686;2022-11-20T06:02:17;1.80;;;0.80;;
23187;SDS011;11762;59.878;17.686;2022-11-20T06:04:44;2.47;;;0.90;;
23187;SDS011;11762;59.878;17.686;2022-11-20T06:07:11;1.20;;;0.60;;
23187;SDS011;11762;59.878;17.686;2022-11-20T06:09:39;2.73;;;0.80;;
23187;SDS011;11762;59.878;17.686;2022-11-20T06:12:06;2.43;;;1.03;;
23187;SDS011;11762;59.878;17.686;2022-11-20T06:14:33;3.17;;;1.07;;
23187;SDS011;11762;59.878;17.686;2022-11-20T06:17:00;3.03;;;0.70;;
23187;SDS011;11762;59.878;17.686;2022-11-20T06:19:27;1.60;;;0.80;;
23187;SDS011;11762;59.878;17.686;2022-11-20T06:21:54;2.47;;;0.97;;
23187;SDS011;11762;59.878;17.686;2022-11-20T06:24:21;1.13;;;0.67;;
23187;SDS011;11762;59.878;17.686;2022-11-20T06:26:51;1.17;;;0.63;;
23187;SDS011;11762;59.878;17.686;2022-11-20T06:29:18;1.57;;;0.77;;
23187;SDS011;11762;59.878;17.686;2022-11-20T06:31:45;2.00;;;0.70;;
23187;SDS011;11762;59.878;17.686;2022-11-20T06:34:12;2.93;;;0.70;;
23187;SDS011;11762;59.878;17.686;2022-11-20T06:36:40;4.40;;;0.43;;
23187;SDS011;11762;59.878;17.686;2022-11-20T06:39:06;2.80;;;0.60;;
23187;SDS011;11762;59.878;17.686;2022-11-20T06:41:33;1.30;;;0.70;;
23187;SDS011;11762;59.878;17.686;2022-11-20T06:44:03;0.60;;;0.37;;
23187;SDS011;11762;59.878;17.686;2022-11-20T06:46:30;2.13;;;0.90;;
23187;SDS011;11762;59.878;17.686;2022-11-20T06:48:57;1.00;;;0.63;;
23187;SDS011;11762;59.878;17.686;2022-11-20T06:51:24;1.90;;;0.70;;
23187;SDS011;11762;59.878;17.686;2022-11-20T06:53:51;1.27;;;0.67;;
23187;SDS011;11762;59.878;17.686;2022-11-20T06:56:19;2.23;;;0.60;;
23187;SDS011;11762;59.878;17.686;2022-11-20T06:58:46;0.80;;;0.50;;
23187;SDS011;11762;59.878;17.686;2022-11-20T07:01:15;1.63;;;0.67;;
23187;SDS011;11762;59.878;17.686;2022-11-20T07:03:42;1.17;;;0.60;;
23187;SDS011;11762;59.878;17.686;2022-11-20T07:06:10;1.50;;;0.60;;
23187;SDS011;11762;59.878;17.686;2022-11-20T07:08:37;2.47;;;0.60;;
23187;SDS011;11762;59.878;17.686;2022-11-20T07:11:04;1.77;;;0.63;;
23187;SDS011;11762;59.878;17.686;2022-11-20T07:13:33;1.43;;;0.57;;
23187;SDS011;11762;59.878;17.686;2022-11-20T07:16:00;1.07;;;0.50;;
23187;SDS011;11762;59.878;17.686;2022-11-20T07:18:29;1.30;;;0.60;;
23187;SDS011;11762;59.878;17.686;2022-11-20T07:20:59;1.37;;;0.70;;
23187;SDS011;11762;59.878;17.686;2022-11-20T07:23:26;1.53;;;0.53;;
23187;SDS011;11762;59.878;17.686;2022-11-20T07:25:53;1.70;;;0.80;;
23187;SDS011;11762;59.878;17.686;2022-11-20T07:28:20;2.80;;;0.67;;
23187;SDS011;11762;59.878;17.686;2022-11-20T07:30:49;1.73;;;0.60;;
23187;SDS011;11762;59.878;17.686;2022-11-20T07:33:16;2.33;;;0.90;;
23187;SDS011;11762;59.878;17.686;2022-11-20T07:35:45;1.30;;;0.77;;
23187;SDS011;11762;59.878;17.686;2022-11-20T07:38:12;1.40;;;0.70;;
23187;SDS011;11762;59.878;17.686;2022-11-20T07:40:38;1.83;;;0.80;;
23187;SDS011;11762;59.878;17.686;2022-11-20T07:43:06;1.87;;;0.73;;
23187;SDS011;11762;59.878;17.686;2022-11-20T07:45:33;1.90;;;0.67;;
23187;SDS011;11762;59.878;17.686;2022-11-20T07:47:59;1.77;;;0.80;;
23187;SDS011;11762;59.878;17.686;2022-11-20T07:50:26;1.60;;;0.77;;
23187;SDS011;11762;59.878;17.686;2022-11-20T07:53:01;2.13;;;1.00;;
23187;SDS011;11762;59.878;17.686;2022-11-20T07:55:29;2.77;;;0.67;;
23187;SDS011;11762;59.878;17.686;2022-11-20T07:57:56;6.90;;;0.80;;
23187;SDS011;11762;59.878;17.686;2022-11-20T08:00:24;2.60;;;0.70;;
23187;SDS011;11762;59.878;17.686;2022-11-20T08:02:52;1.10;;;0.57;;
23187;SDS011;11762;59.878;17.686;2022-11-20T08:05:19;1.13;;;0.60;;
23187;SDS011;11762;59.878;17.686;2022-11-20T08:07:47;1.43;;;0.70;;
23187;SDS011;11762;59.878;17.686;2022-11-20T08:10:15;1.73;;;0.90;;
23187;SDS011;11762;59.878;17.686;2022-11-20T08:12:46;2.67;;;0.90;;
23187;SDS011;11762;59.878;17.686;2022-11-20T08:15:32;1.70;;;0.80;;
23187;SDS011;11762;59.878;17.686;2022-11-20T08:18:00;3.10;;;1.03;;
23187;SDS011;11762;59.878;17.686;2022-11-20T08:20:28;2.73;;;1.00;;
23187;SDS011;11762;59.878;17.686;2022-11-20T08:22:58;2.53;;;0.90;;
23187;SDS011;11762;59.878;17.686;2022-11-20T08:25:27;1.77;;;0.80;;
23187;SDS011;11762;59.878;17.686;2022-11-20T08:27:56;5.03;;;1.00;;
23187;SDS011;11762;59.878;17.686;2022-11-20T08:30:24;2.47;;;1.17;;
23187;SDS011;11762;59.878;17.686;2022-11-20T08:32:51;2.80;;;0.73;;
23187;SDS011;11762;59.878;17.686;2022-11-20T08:35:19;1.87;;;0.60;;
23187;SDS011;11762;59.878;17.686;2022-11-20T08:37:46;1.93;;;0.80;;
23187;SDS011;11762;59.878;17.686;2022-11-20T08:40:13;1.83;;;1.00;;
23187;SDS011;11762;59.878;17.686;2022-11-20T08:42:47;3.33;;;0.70;;
23187;SDS011;11762;59.878;17.686;2022-11-20T08:45:14;7.03;;;0.90;;
23187;SDS011;11762;59.878;17.686;2022-11-20T08:47:41;4.80;;;1.00;;
23187;SDS011;11762;59.878;17.686;2022-11-20T08:50:09;1.70;;;0.70;;
23187;SDS011;11762;59.878;17.686;2022-11-20T08:52:36;3.17;;;0.80;;
23187;SDS011;11762;59.878;17.686;2022-11-20T08:55:04;4.73;;;0.80;;
23187;SDS011;11762;59.878;17.686;2022-11-20T08:57:32;1.27;;;0.50;;
23187;SDS011;11762;59.878;17.686;2022-11-20T09:00:03;1.73;;;0.67;;
23187;SDS011;11762;59.878;17.686;2022-11-20T09:02:31;3.40;;;1.03;;
23187;SDS011;11762;59.878;17.686;2022-11-20T09:04:59;2.17;;;0.87;;
23187;SDS011;11762;59.878;17.686;2022-11-20T09:07:27;4.30;;;0.83;;
23187;SDS011;11762;59.878;17.686;2022-11-20T09:09:54;1.63;;;0.80;;
23187;SDS011;11762;59.878;17.686;2022-11-20T09:12:21;0.57;;;0.40;;
23187;SDS011;11762;59.878;17.686;2022-11-20T09:14:48;2.00;;;0.70;;
23187;SDS011;11762;59.878;17.686;2022-11-20T09:17:17;2.33;;;0.80;;
23187;SDS011;11762;59.878;17.686;2022-11-20T09:19:45;0.70;;;0.43;;
23187;SDS011;11762;59.878;17.686;2022-11-20T09:22:12;1.90;;;0.80;;
23187;SDS011;11762;59.878;17.686;2022-11-20T09:24:39;1.73;;;0.70;;
23187;SDS011;11762;59.878;17.686;2022-11-20T09:27:07;1.13;;;0.50;;
23187;SDS011;11762;59.878;17.686;2022-11-20T09:29:34;1.30;;;0.57;;
23187;SDS011;11762;59.878;17.686;2022-11-20T09:32:01;1.40;;;0.70;;
23187;SDS011;11762;59.878;17.686;2022-11-20T09:34:30;1.00;;;0.60;;
23187;SDS011;11762;59.878;17.686;2022-11-20T09:36:57;1.33;;;0.60;;
23187;SDS011;11762;59.878;17.686;2022-11-20T09:39:24;1.13;;;0.60;;
23187;SDS011;11762;59.878;17.686;2022-11-20T09:41:54;3.93;;;0.80;;
23187;SDS011;11762;59.878;17.686;2022-11-20T09:44:40;1.10;;;0.50;;
23187;SDS011;11762;59.878;17.686;2022-11-20T09:47:34;1.30;;;0.53;;
23187;SDS011;11762;59.878;17.686;2022-11-20T09:50:18;1.77;;;0.80;;
23187;SDS011;11762;59.878;17.686;2022-11-20T09:52:55;1.60;;;0.53;;
23187;SDS011;11762;59.878;17.686;2022-11-20T09:55:37;1.67;;;0.60;;
23187;SDS011;11762;59.878;17.686;2022-11-20T09:58:05;1.10;;;0.43;;
23187;SDS011;11762;59.878;17.686;2022-11-20T10:00:34;1.33;;;0.63;;
23187;SDS011;11762;59.878;17.686;2022-11-20T10:03:03;2.70;;;0.97;;
23187;SDS011;11762;59.878;17.686;2022-11-20T10:05:40;2.17;;;0.90;;
23187;SDS011;11762;59.878;17.686;2022-11-20T10:08:15;1.87;;;1.00;;
23187;SDS011;11762;59.878;17.686;2022-11-20T10:10:46;2.17;;;0.90;;
23187;SDS011;11762;59.878;17.686;2022-11-20T10:13:18;3.33;;;0.70;;
23187;SDS011;11762;59.878;17.686;2022-11-20T10:15:55;1.93;;;0.60;;
23187;SDS011;11762;59.878;17.686;2022-11-20T10:18:33;1.93;;;0.70;;
23187;SDS011;11762;59.878;17.686;2022-11-20T10:21:16;1.70;;;0.70;;
23187;SDS011;11762;59.878;17.686;2022-11-20T10:24:14;2.20;;;1.10;;
23187;SDS011;11762;59.878;17.686;2022-11-20T10:26:56;2.60;;;1.20;;
23187;SDS011;11762;59.878;17.686;2022-11-20T10:29:33;1.77;;;0.90;;
23187;SDS011;11762;59.878;17.686;2022-11-20T10:32:01;4.03;;;0.90;;
23187;SDS011;11762;59.878;17.686;2022-11-20T10:34:31;2.33;;;0.73;;
23187;SDS011;11762;59.878;17.686;2022-11-20T10:37:09;1.67;;;0.67;;
23187;SDS011;11762;59.878;17.686;2022-11-20T10:39:40;3.93;;;0.90;;
23187;SDS011;11762;59.878;17.686;2022-11-20T10:42:11;1.93;;;0.90;;
23187;SDS011;11762;59.878;17.686;2022-11-20T10:44:42;6.27;;;1.30;;
23187;SDS011;11762;59.878;17.686;2022-11-20T10:47:28;2.70;;;1.10;;
23187;SDS011;11762;59.878;17.686;2022-11-20T10:49:58;2.03;;;0.90;;
23187;SDS011;11762;59.878;17.686;2022-11-20T10:52:32;4.43;;;1.43;;
23187;SDS011;11762;59.878;17.686;2022-11-20T10:55:11;2.43;;;0.90;;
23187;SDS011;11762;59.878;17.686;2022-11-20T10:57:52;5.07;;;1.40;;
23187;SDS011;11762;59.878;17.686;2022-11-20T11:00:23;5.47;;;1.20;;
23187;SDS011;11762;59.878;17.686;2022-11-20T11:02:51;5.73;;;1.50;;
23187;SDS011;11762;59.878;17.686;2022-11-20T11:05:25;2.70;;;1.10;;
23187;SDS011;11762;59.878;17.686;2022-11-20T11:08:01;3.33;;;1.13;;
23187;SDS011;11762;59.878;17.686;2022-11-20T11:10:32;5.63;;;1.67;;
23187;SDS011;11762;59.878;17.686;2022-11-20T11:13:06;6.70;;;1.30;;
23187;SDS011;11762;59.878;17.686;2022-11-20T11:15:37;2.83;;;1.50;;
23187;SDS011;11762;59.878;17.686;2022-11-20T11:18:06;3.27;;;1.80;;
23187;SDS011;11762;59.878;17.686;2022-11-20T11:20:36;3.17;;;1.50;;
23187;SDS011;11762;59.878;17.686;2022-11-20T11:23:04;3.53;;;1.50;;
23187;SDS011;11762;59.878;17.686;2022-11-20T11:25:32;3.63;;;1.47;;
23187;SDS011;11762;59.878;17.686;2022-11-20T11:28:01;3.37;;;1.30;;
23187;SDS011;11762;59.878;17.686;2022-11-20T11:30:40;3.33;;;1.50;;
23187;SDS011;11762;59.878;17.686;2022-11-20T11:33:09;4.97;;;1.23;;
23187;SDS011;11762;59.878;17.686;2022-11-20T11:35:39;3.50;;;1.40;;
23187;SDS011;11762;59.878;17.686;2022-11-20T11:38:14;5.97;;;1.37;;
23187;SDS011;11762;59.878;17.686;2022-11-20T11:40:43;3.03;;;1.30;;
23187;SDS011;11762;59.878;17.686;2022-11-20T11:43:17;4.03;;;1.17;;
23187;SDS011;11762;59.878;17.686;2022-11-20T11:46:04;7.77;;;1.47;;
23187;SDS011;11762;59.878;17.686;2022-11-20T11:48:54;2.50;;;1.50;;
23187;SDS011;11762;59.878;17.686;2022-11-20T11:51:26;4.33;;;1.30;;
23187;SDS011;11762;59.878;17.686;2022-11-20T11:54:00;2.73;;;1.37;;
23187;SDS011;11762;59.878;17.686;2022-11-20T11:56:31;3.67;;;1.37;;
23187;SDS011;11762;59.878;17.686;2022-11-20T11:59:00;6.20;;;1.20;;
23187;SDS011;11762;59.878;17.686;2022-11-20T12:01:34;2.80;;;1.50;;
23187;SDS011;11762;59.878;17.686;2022-11-20T12:04:16;4.57;;;1.37;;
23187;SDS011;11762;59.878;17.686;2022-11-20T12:06:48;2.20;;;1.20;;
23187;SDS011;11762;59.878;17.686;2022-11-20T12:09:26;4.20;;;1.30;;
23187;SDS011;11762;59.878;17.686;2022-11-20T12:12:04;4.40;;;1.30;;
23187;SDS011;11762;59.878;17.686;2022-11-20T12:14:37;5.63;;;1.60;;
23187;SDS011;11762;59.878;17.686;2022-11-20T12:17:07;4.17;;;1.73;;
23187;SDS011;11762;59.878;17.686;2022-11-20T12:19:38;2.87;;;1.43;;
23187;SDS011;11762;59.878;17.686;2022-11-20T12:22:07;4.37;;;1.83;;
23187;SDS011;11762;59.878;17.686;2022-11-20T12:24:46;5.40;;;1.60;;
23187;SDS011;11762;59.878;17.686;2022-11-20T12:27:27;5.20;;;1.50;;
23187;SDS011;11762;59.878;17.686;2022-11-20T12:30:14;3.67;;;1.77;;
23187;SDS011;11762;59.878;17.686;2022-11-20T12:32:58;3.83;;;1.70;;
23187;SDS011;11762;59.878;17.686;2022-11-20T12:36:06;2.93;;;1.60;;
23187;SDS011;11762;59.878;17.686;2022-11-20T12:38:49;3.07;;;1.50;;
23187;SDS011;11762;59.878;17.686;2022-11-20T12:41:27;2.27;;;1.37;;
23187;SDS011;11762;59.878;17.686;2022-11-20T12:44:33;3.70;;;1.70;;
23187;SDS011;11762;59.878;17.686;2022-11-20T12:47:39;4.07;;;1.70;;
23187;SDS011;11762;59.878;17.686;2022-11-20T12:50:31;2.57;;;1.47;;
23187;SDS011;11762;59.878;17.686;2022-11-20T12:53:07;3.10;;;1.70;;
23187;SDS011;11762;59.878;17.686;2022-11-20T12:55:46;2.73;;;1.53;;
23187;SDS011;11762;59.878;17.686;2022-11-20T12:58:22;3.47;;;1.53;;
23187;SDS011;11762;59.878;17.686;2022-11-20T13:00:55;2.77;;;1.50;;
23187;SDS011;11762;59.878;17.686;2022-11-20T13:03:30;4.17;;;1.87;;
23187;SDS011;11762;59.878;17.686;2022-11-20T13:06:05;6.27;;;1.80;;
23187;SDS011;11762;59.878;17.686;2022-11-20T13:08:40;3.07;;;1.50;;
23187;SDS011;11762;59.878;17.686;2022-11-20T13:11:13;2.80;;;1.53;;
23187;SDS011;11762;59.878;17.686;2022-11-20T13:14:00;7.00;;;1.70;;
23187;SDS011;11762;59.878;17.686;2022-11-20T13:16:36;5.23;;;1.63;;
23187;SDS011;11762;59.878;17.686;2022-11-20T13:19:09;4.80;;;1.50;;
23187;SDS011;11762;59.878;17.686;2022-11-20T13:21:39;3.70;;;1.23;;
23187;SDS011;11762;59.878;17.686;2022-11-20T13:24:20;4.33;;;1.50;;
23187;SDS011;11762;59.878;17.686;2022-11-20T13:26:59;3.20;;;1.80;;
23187;SDS011;11762;59.878;17.686;2022-11-20T13:29:32;3.30;;;1.80;;
23187;SDS011;11762;59.878;17.686;2022-11-20T13:32:03;5.97;;;2.17;;
23187;SDS011;11762;59.878;17.686;2022-11-20T13:34:33;2.60;;;1.63;;
23187;SDS011;11762;59.878;17.686;2022-11-20T13:37:02;6.60;;;2.00;;
23187;SDS011;11762;59.878;17.686;2022-11-20T13:39:30;4.17;;;2.00;;
23187;SDS011;11762;59.878;17.686;2022-11-20T13:41:58;4.17;;;1.90;;
23187;SDS011;11762;59.878;17.686;2022-11-20T13:44:29;3.27;;;1.70;;
23187;SDS011;11762;59.878;17.686;2022-11-20T13:47:03;3.23;;;1.87;;
23187;SDS011;11762;59.878;17.686;2022-11-20T13:49:46;3.17;;;2.00;;
23187;SDS011;11762;59.878;17.686;2022-11-20T13:52:30;3.37;;;1.87;;
23187;SDS011;11762;59.878;17.686;2022-11-20T13:55:11;3.40;;;1.87;;
23187;SDS011;11762;59.878;17.686;2022-11-20T13:57:54;3.50;;;1.80;;
23187;SDS011;11762;59.878;17.686;2022-11-20T14:00:32;3.50;;;1.70;;
23187;SDS011;11762;59.878;17.686;2022-11-20T14:03:01;3.93;;;1.70;;
23187;SDS011;11762;59.878;17.686;2022-11-20T14:05:38;2.70;;;1.60;;
23187;SDS011;11762;59.878;17.686;2022-11-20T14:08:14;3.13;;;1.40;;
23187;SDS011;11762;59.878;17.686;2022-11-20T14:10:49;3.40;;;1.47;;
23187;SDS011;11762;59.878;17.686;2022-11-20T14:13:17;2.67;;;1.50;;
23187;SDS011;11762;59.878;17.686;2022-11-20T14:15:46;2.97;;;1.40;;
23187;SDS011;11762;59.878;17.686;2022-11-20T14:18:14;3.93;;;1.53;;
23187;SDS011;11762;59.878;17.686;2022-11-20T14:20:46;2.97;;;1.47;;
23187;SDS011;11762;59.878;17.686;2022-11-20T14:23:22;2.67;;;1.40;;
23187;SDS011;11762;59.878;17.686;2022-11-20T14:25:51;2.30;;;1.40;;
23187;SDS011;11762;59.878;17.686;2022-11-20T14:28:20;4.57;;;1.50;;
23187;SDS011;11762;59.878;17.686;2022-11-20T14:30:53;4.77;;;1.40;;
23187;SDS011;11762;59.878;17.686;2022-11-20T14:33:21;7.80;;;1.93;;
23187;SDS011;11762;59.878;17.686;2022-11-20T14:35:51;3.17;;;1.77;;
23187;SDS011;11762;59.878;17.686;2022-11-20T14:38:21;2.70;;;1.57;;
23187;SDS011;11762;59.878;17.686;2022-11-20T14:40:51;3.67;;;1.50;;
23187;SDS011;11762;59.878;17.686;2022-11-20T14:43:19;3.40;;;1.47;;
23187;SDS011;11762;59.878;17.686;2022-11-20T14:45:54;4.40;;;1.60;;
23187;SDS011;11762;59.878;17.686;2022-11-20T14:48:24;2.77;;;1.47;;
23187;SDS011;11762;59.878;17.686;2022-11-20T14:50:56;2.40;;;1.50;;
23187;SDS011;11762;59.878;17.686;2022-11-20T14:53:24;3.07;;;1.57;;